Time;durP1;ratioP1;P1;durP2;ratioP2;P2;SDS_P1;SDS_P2;PMS_P1;PMS_P2;Temp;Humidity;BMP_temperature;BMP_pressure;BME280_temperature;BME280_humidity;BME280_pressure;Samples;Min_cycle;Max_cycle;Signal;HPM_P1;HPM_P2
2022/04/01 00:00:45;;;;;;;7.25;1.38;;;;;;;;;;6159115;23;20013;-92
2022/04/01 00:03:11;;;;;;;4.60;1.02;;;;;;;;;;6158728;23;20013;-91
2022/04/01 00:05:39;;;;;;;4.82;1.17;;;;;;;;;;6159296;23;20469;-91
2022/04/01 00:08:05;;;;;;;3.95;1.05;;;;;;;;;;6158800;23;20017;-93
2022/04/01 00:10:31;;;;;;;4.50;1.30;;;;;;;;;;6158835;23;20029;-92
2022/04/01 00:12:57;;;;;;;5.30;1.52;;;;;;;;;;6158727;23;20013;-90
2022/04/01 00:15:23;;;;;;;6.38;1.50;;;;;;;;;;6158721;23;20334;-91
2022/04/01 00:17:49;;;;;;;3.67;1.10;;;;;;;;;;6158368;23;20045;-91
2022/04/01 00:20:18;;;;;;;4.68;1.67;;;;;;;;;;6158542;23;20013;-91
2022/04/01 00:22:44;;;;;;;3.33;1.05;;;;;;;;;;6158590;23;20508;-91
2022/04/01 00:25:10;;;;;;;4.85;1.33;;;;;;;;;;6160809;23;20020;-90
2022/04/01 00:27:36;;;;;;;4.80;1.85;;;;;;;;;;6160479;23;20013;-91
2022/04/01 00:30:04;;;;;;;4.25;1.15;;;;;;;;;;6160769;23;20020;-90
2022/04/01 00:32:30;;;;;;;5.85;1.85;;;;;;;;;;6160367;23;20013;-91
2022/04/01 00:34:56;;;;;;;4.80;1.52;;;;;;;;;;6160901;23;20013;-92
2022/04/01 00:37:22;;;;;;;3.53;1.17;;;;;;;;;;6160851;23;20092;-90
2022/04/01 00:39:48;;;;;;;4.45;1.00;;;;;;;;;;6160544;23;20040;-93
2022/04/01 00:42:14;;;;;;;4.30;1.20;;;;;;;;;;6160748;23;20316;-94
2022/04/01 00:44:41;;;;;;;3.45;1.33;;;;;;;;;;6161627;23;20040;-92
2022/04/01 00:47:13;;;;;;;6.55;1.42;;;;;;;;;;6160731;23;20386;-93
2022/04/01 00:49:39;;;;;;;4.88;1.33;;;;;;;;;;6156078;23;20021;-92
2022/04/01 00:52:07;;;;;;;4.97;1.27;;;;;;;;;;6131675;23;20016;-92
2022/04/01 00:54:35;;;;;;;3.53;1.15;;;;;;;;;;6156898;23;20012;-93
2022/04/01 00:57:01;;;;;;;3.58;1.05;;;;;;;;;;6131519;23;20443;-95
2022/04/01 00:59:27;;;;;;;3.65;1.42;;;;;;;;;;6156222;23;20018;-93
2022/04/01 01:01:53;;;;;;;4.03;1.27;;;;;;;;;;6155787;23;20254;-92
2022/04/01 01:04:19;;;;;;;4.72;1.50;;;;;;;;;;6155862;23;20076;-95
2022/04/01 01:06:56;;;;;;;3.42;1.10;;;;;;;;;;6155890;23;20017;-92
2022/04/01 01:09:23;;;;;;;3.25;1.10;;;;;;;;;;6154027;23;20383;-93
2022/04/01 01:11:50;;;;;;;7.25;2.03;;;;;;;;;;6155415;23;20096;-93
2022/04/01 01:14:22;;;;;;;5.05;1.20;;;;;;;;;;6155874;23;20450;-92
2022/04/01 01:16:48;;;;;;;4.72;1.52;;;;;;;;;;6155980;23;20439;-93
2022/04/01 01:19:18;;;;;;;3.75;1.20;;;;;;;;;;6156054;23;20010;-93
2022/04/01 01:21:45;;;;;;;5.60;1.60;;;;;;;;;;6131205;23;20387;-93
2022/04/01 01:24:13;;;;;;;4.25;1.50;;;;;;;;;;6131012;23;20013;-92
2022/04/01 01:26:40;;;;;;;3.42;1.02;;;;;;;;;;6131176;23;20025;-93
2022/04/01 01:29:06;;;;;;;5.28;1.20;;;;;;;;;;6131370;23;20051;-94
2022/04/01 01:31:33;;;;;;;8.02;1.35;;;;;;;;;;6131062;23;20010;-94
2022/04/01 01:33:59;;;;;;;3.30;1.00;;;;;;;;;;6155653;23;20014;-93
2022/04/01 01:36:27;;;;;;;3.72;1.20;;;;;;;;;;6155818;23;20032;-93
2022/04/01 01:38:53;;;;;;;3.53;1.30;;;;;;;;;;6156233;23;20014;-92
2022/04/01 01:41:20;;;;;;;4.13;1.50;;;;;;;;;;6131049;23;20013;-93
2022/04/01 01:43:46;;;;;;;4.28;1.38;;;;;;;;;;6130718;23;20018;-91
2022/04/01 01:46:12;;;;;;;4.28;1.20;;;;;;;;;;6155848;23;20013;-93
2022/04/01 01:48:38;;;;;;;4.95;1.20;;;;;;;;;;6158830;23;20071;-92
2022/04/01 01:56:34;;;;;;;5.22;1.30;;;;;;;;;;6160238;23;20351;-93
2022/04/01 01:59:01;;;;;;;3.13;1.27;;;;;;;;;;6160076;23;20092;-94
2022/04/01 02:01:27;;;;;;;5.45;1.10;;;;;;;;;;6160670;23;20017;-93
2022/04/01 02:03:53;;;;;;;3.45;1.13;;;;;;;;;;6160259;23;20328;-93
2022/04/01 02:06:22;;;;;;;4.22;1.00;;;;;;;;;;6160724;23;20017;-95
2022/04/01 02:08:50;;;;;;;3.58;1.27;;;;;;;;;;6159971;23;20019;-94
2022/04/01 02:11:17;;;;;;;4.22;1.20;;;;;;;;;;6159948;23;20473;-94
2022/04/01 02:13:44;;;;;;;4.32;1.20;;;;;;;;;;6159929;23;20009;-93
2022/04/01 02:16:10;;;;;;;3.63;0.98;;;;;;;;;;6160286;23;20009;-93
2022/04/01 02:18:36;;;;;;;3.35;1.15;;;;;;;;;;6160082;23;20066;-95
2022/04/01 02:21:10;;;;;;;4.47;1.65;;;;;;;;;;6160565;23;20070;-93
2022/04/01 02:23:37;;;;;;;3.05;1.05;;;;;;;;;;6160536;23;20319;-93
2022/04/01 02:26:03;;;;;;;5.85;1.45;;;;;;;;;;6160178;23;20016;-94
2022/04/01 02:28:29;;;;;;;3.83;1.42;;;;;;;;;;6160339;23;20014;-95
2022/04/01 02:30:55;;;;;;;4.65;1.35;;;;;;;;;;6160327;23;20086;-93
2022/04/01 02:33:21;;;;;;;4.40;1.27;;;;;;;;;;6159897;23;20455;-93
2022/04/01 02:35:47;;;;;;;4.25;1.13;;;;;;;;;;6160345;23;20013;-94
2022/04/01 02:38:14;;;;;;;4.05;1.20;;;;;;;;;;6159530;23;20401;-93
2022/04/01 02:40:40;;;;;;;5.07;1.40;;;;;;;;;;6159872;23;20347;-93
2022/04/01 02:43:06;;;;;;;6.70;1.45;;;;;;;;;;6159506;23;20088;-92
2022/04/01 02:45:32;;;;;;;5.43;1.55;;;;;;;;;;6160159;23;20257;-93
2022/04/01 02:47:58;;;;;;;4.22;1.20;;;;;;;;;;6159977;23;20094;-93
2022/04/01 02:50:26;;;;;;;3.88;0.90;;;;;;;;;;6160099;23;20013;-93
2022/04/01 02:52:52;;;;;;;5.10;1.38;;;;;;;;;;6160074;23;20647;-95
2022/04/01 02:55:18;;;;;;;7.75;1.30;;;;;;;;;;6160206;23;20013;-94
2022/04/01 02:57:44;;;;;;;4.15;1.00;;;;;;;;;;6160159;23;20084;-92
2022/04/01 03:00:10;;;;;;;3.00;1.00;;;;;;;;;;6159700;23;20020;-94
2022/04/01 03:02:40;;;;;;;3.50;1.20;;;;;;;;;;6159717;23;20013;-94
2022/04/01 03:05:06;;;;;;;3.65;1.63;;;;;;;;;;6160339;23;20024;-93
2022/04/01 03:07:33;;;;;;;4.72;1.83;;;;;;;;;;6159826;23;20023;-94
2022/04/01 03:09:59;;;;;;;3.88;1.05;;;;;;;;;;6159704;23;20344;-93
2022/04/01 03:12:25;;;;;;;4.85;1.42;;;;;;;;;;6160117;23;20038;-93
2022/04/01 03:14:52;;;;;;;4.47;1.42;;;;;;;;;;6159956;23;20338;-94
2022/04/01 03:17:18;;;;;;;3.63;0.82;;;;;;;;;;6160651;23;20017;-93
2022/04/01 03:19:44;;;;;;;3.92;1.27;;;;;;;;;;6160157;23;20086;-94
2022/04/01 03:22:10;;;;;;;7.10;1.00;;;;;;;;;;6160163;23;20020;-95
2022/04/01 03:24:36;;;;;;;5.75;1.00;;;;;;;;;;6160322;23;20009;-94
2022/04/01 03:27:03;;;;;;;6.22;1.90;;;;;;;;;;6160623;23;20032;-94
2022/04/01 03:29:31;;;;;;;3.00;1.02;;;;;;;;;;6160874;23;20013;-95
2022/04/01 03:31:58;;;;;;;3.38;0.98;;;;;;;;;;6161463;23;20021;-95
2022/04/01 03:34:24;;;;;;;4.38;1.10;;;;;;;;;;6160314;23;20100;-94
2022/04/01 03:36:50;;;;;;;6.72;1.35;;;;;;;;;;6160459;23;20329;-96
2022/04/01 03:39:17;;;;;;;2.80;1.00;;;;;;;;;;6160958;23;20023;-93
2022/04/01 03:41:44;;;;;;;5.65;1.25;;;;;;;;;;6161383;23;20017;-94
2022/04/01 03:44:11;;;;;;;4.43;1.27;;;;;;;;;;6160039;23;20017;-96
2022/04/01 03:46:47;;;;;;;7.88;1.10;;;;;;;;;;6160418;23;20013;-94
2022/04/01 03:49:14;;;;;;;6.22;1.27;;;;;;;;;;6161688;23;20021;-95
2022/04/01 03:51:42;;;;;;;5.07;1.20;;;;;;;;;;6162015;23;20067;-93
2022/04/01 03:54:10;;;;;;;5.85;1.30;;;;;;;;;;6162001;23;20064;-94
2022/04/01 03:56:37;;;;;;;5.10;1.02;;;;;;;;;;6161034;23;20009;-95
2022/04/01 03:59:05;;;;;;;5.53;1.17;;;;;;;;;;6160635;23;20009;-94
2022/04/01 04:01:31;;;;;;;4.65;1.20;;;;;;;;;;6162137;23;20024;-94
2022/04/01 04:03:57;;;;;;;5.22;0.85;;;;;;;;;;6161884;23;20086;-94
2022/04/01 04:06:24;;;;;;;3.58;1.00;;;;;;;;;;6162429;23;20021;-94
2022/04/01 04:08:55;;;;;;;3.00;0.80;;;;;;;;;;6161597;23;20048;-94
2022/04/01 04:11:28;;;;;;;6.20;0.90;;;;;;;;;;6161921;23;20084;-95
2022/04/01 04:13:55;;;;;;;12.80;1.30;;;;;;;;;;6162501;23;20013;-95
2022/04/01 04:16:25;;;;;;;8.30;1.30;;;;;;;;;;6163310;23;20088;-94
2022/04/01 04:18:57;;;;;;;4.53;1.30;;;;;;;;;;6163243;23;20009;-93
2022/04/01 04:21:38;;;;;;;4.28;1.10;;;;;;;;;;6162341;23;20016;-94
2022/04/01 04:24:06;;;;;;;3.13;1.15;;;;;;;;;;6161914;23;20016;-95
2022/04/01 04:26:46;;;;;;;3.80;1.17;;;;;;;;;;6162216;23;20013;-94
2022/04/01 04:29:15;;;;;;;4.18;1.20;;;;;;;;;;6161833;23;20025;-93
2022/04/01 04:31:50;;;;;;;3.88;1.10;;;;;;;;;;6161827;23;20014;-94
2022/04/01 04:34:19;;;;;;;4.75;1.17;;;;;;;;;;6161476;23;20013;-93
2022/04/01 04:36:48;;;;;;;3.85;0.70;;;;;;;;;;6161479;23;20419;-93
2022/04/01 04:39:29;;;;;;;5.15;0.98;;;;;;;;;;6161917;23;20016;-94
2022/04/01 04:41:56;;;;;;;5.38;1.20;;;;;;;;;;6162436;23;20017;-94
2022/04/01 04:44:29;;;;;;;5.10;1.25;;;;;;;;;;6161732;23;20451;-94
2022/04/01 04:46:59;;;;;;;3.55;0.90;;;;;;;;;;6161516;23;20543;-93
2022/04/01 04:49:28;;;;;;;4.28;0.85;;;;;;;;;;6160949;23;20017;-96
2022/04/01 04:51:56;;;;;;;3.60;1.23;;;;;;;;;;6161674;23;20017;-94
2022/04/01 04:54:24;;;;;;;5.38;1.20;;;;;;;;;;6161225;23;20052;-94
2022/04/01 04:56:50;;;;;;;5.40;1.55;;;;;;;;;;6161395;23;20259;-94
2022/04/01 04:59:18;;;;;;;8.18;1.30;;;;;;;;;;6161073;23;20343;-94
2022/04/01 05:01:49;;;;;;;2.83;0.98;;;;;;;;;;6161262;23;20012;-94
2022/04/01 05:04:35;;;;;;;3.22;1.00;;;;;;;;;;6161154;23;20076;-93
2022/04/01 05:07:37;;;;;;;5.47;1.10;;;;;;;;;;6161357;23;20019;-92
2022/04/01 05:10:07;;;;;;;7.60;1.48;;;;;;;;;;6043460;23;20022;-92
2022/04/01 05:12:36;;;;;;;4.38;1.35;;;;;;;;;;6117021;23;20385;-94
2022/04/01 05:15:02;;;;;;;3.70;0.90;;;;;;;;;;6161638;23;20044;-94
2022/04/01 05:17:49;;;;;;;5.88;1.00;;;;;;;;;;6161676;23;20012;-94
2022/04/01 05:20:18;;;;;;;4.15;0.88;;;;;;;;;;6141296;23;20013;-94
2022/04/01 05:22:48;;;;;;;3.75;0.90;;;;;;;;;;6161267;23;20025;-93
2022/04/01 05:25:24;;;;;;;4.47;0.90;;;;;;;;;;6160690;23;20044;-93
2022/04/01 05:27:50;;;;;;;;;;;;;;;;;;6161381;23;20060;-94
2022/04/01 05:30:16;;;;;;;3.80;1.15;;;;;;;;;;6161212;23;19916;-93
2022/04/01 05:33:00;;;;;;;6.07;0.95;;;;;;;;;;6160818;23;20009;-92
2022/04/01 05:35:27;;;;;;;5.97;0.88;;;;;;;;;;6161033;23;20089;-93
2022/04/01 05:37:54;;;;;;;3.70;1.02;;;;;;;;;;6160636;23;20015;-94
2022/04/01 05:40:22;;;;;;;5.15;0.90;;;;;;;;;;6160442;23;20024;-92
2022/04/01 05:42:48;;;;;;;3.00;0.93;;;;;;;;;;6160936;23;20055;-94
2022/04/01 05:45:16;;;;;;;2.83;0.68;;;;;;;;;;6161014;23;20016;-94
2022/04/01 05:47:42;;;;;;;5.03;1.20;;;;;;;;;;6162134;23;20017;-93
2022/04/01 05:50:08;;;;;;;5.85;1.10;;;;;;;;;;6160312;23;20025;-92
2022/04/01 05:52:36;;;;;;;4.68;1.20;;;;;;;;;;6136179;23;20013;-93
2022/04/01 05:55:03;;;;;;;3.45;1.35;;;;;;;;;;6160467;23;20469;-92
2022/04/01 05:57:29;;;;;;;8.02;0.98;;;;;;;;;;6160768;23;20036;-92
2022/04/01 05:59:55;;;;;;;4.88;1.20;;;;;;;;;;6160563;23;20343;-93
2022/04/01 06:02:40;;;;;;;4.32;0.80;;;;;;;;;;6160629;23;20013;-93
2022/04/01 06:05:26;;;;;;;4.28;1.35;;;;;;;;;;6160709;23;20020;-93
2022/04/01 06:08:05;;;;;;;7.45;1.20;;;;;;;;;;6160916;23;20031;-92
2022/04/01 06:10:37;;;;;;;3.10;0.90;;;;;;;;;;6160671;23;20039;-95
2022/04/01 06:13:07;;;;;;;5.63;1.10;;;;;;;;;;6160501;23;20013;-93
2022/04/01 06:15:39;;;;;;;3.17;1.05;;;;;;;;;;6160767;23;20040;-95
2022/04/01 06:18:05;;;;;;;5.25;1.27;;;;;;;;;;6161416;23;20140;-93
2022/04/01 06:20:33;;;;;;;3.28;1.10;;;;;;;;;;6162571;23;20021;-93
2022/04/01 06:23:04;;;;;;;4.03;1.13;;;;;;;;;;6160996;23;20017;-93
2022/04/01 06:25:32;;;;;;;2.95;0.90;;;;;;;;;;6160531;23;20017;-93
2022/04/01 06:28:14;;;;;;;8.30;1.40;;;;;;;;;;6160630;23;20085;-95
2022/04/01 06:30:42;;;;;;;4.40;1.00;;;;;;;;;;6160447;23;20056;-92
2022/04/01 06:33:26;;;;;;;4.53;0.95;;;;;;;;;;6160014;23;20048;-94
2022/04/01 06:35:52;;;;;;;2.85;1.15;;;;;;;;;;6159941;23;20012;-94
2022/04/01 06:38:27;;;;;;;4.55;1.02;;;;;;;;;;6160150;23;20017;-93
2022/04/01 06:40:56;;;;;;;3.83;0.80;;;;;;;;;;6156324;23;20016;-93
2022/04/01 06:43:23;;;;;;;4.65;1.02;;;;;;;;;;6160368;23;20017;-93
2022/04/01 06:45:49;;;;;;;3.22;0.75;;;;;;;;;;6159952;23;20474;-95
2022/04/01 06:48:15;;;;;;;4.03;0.90;;;;;;;;;;6160067;23;20063;-95
2022/04/01 06:50:49;;;;;;;6.88;1.25;;;;;;;;;;6159802;23;20020;-92
2022/04/01 06:53:15;;;;;;;3.42;1.05;;;;;;;;;;6159572;23;20013;-95
2022/04/01 06:55:41;;;;;;;3.50;0.93;;;;;;;;;;6159748;23;20334;-92
2022/04/01 06:58:11;;;;;;;3.60;1.02;;;;;;;;;;6159631;23;20012;-93
2022/04/01 07:00:37;;;;;;;7.22;1.30;;;;;;;;;;6159325;23;20455;-93
2022/04/01 07:03:03;;;;;;;4.82;1.00;;;;;;;;;;6159038;23;20017;-93
2022/04/01 07:05:29;;;;;;;4.22;0.93;;;;;;;;;;6159936;23;20096;-93
2022/04/01 07:07:57;;;;;;;4.32;0.85;;;;;;;;;;6159521;23;20016;-93
2022/04/01 07:10:23;;;;;;;6.45;1.13;;;;;;;;;;6159234;23;20187;-94
2022/04/01 07:12:49;;;;;;;5.13;1.20;;;;;;;;;;6160643;23;20084;-93
2022/04/01 07:15:16;;;;;;;4.30;1.30;;;;;;;;;;6159898;23;20055;-92
2022/04/01 07:17:41;;;;;;;5.65;1.15;;;;;;;;;;6159286;23;20013;-94
2022/04/01 07:20:08;;;;;;;4.88;0.95;;;;;;;;;;6159179;23;20072;-92
2022/04/01 07:22:36;;;;;;;4.22;0.75;;;;;;;;;;6158728;23;20097;-92
2022/04/01 07:25:02;;;;;;;2.45;1.10;;;;;;;;;;6159758;23;20017;-93
2022/04/01 07:27:29;;;;;;;5.20;1.40;;;;;;;;;;6159232;23;20013;-92
2022/04/01 07:29:55;;;;;;;5.55;1.38;;;;;;;;;;6159250;23;20178;-94
2022/04/01 07:32:40;;;;;;;6.45;1.00;;;;;;;;;;6159179;23;20012;-91
2022/04/01 07:35:08;;;;;;;4.15;1.00;;;;;;;;;;6159877;23;20346;-92
2022/04/01 07:37:34;;;;;;;3.95;1.30;;;;;;;;;;6159121;23;20064;-92
2022/04/01 07:40:00;;;;;;;5.22;1.00;;;;;;;;;;6159748;23;20378;-91
2022/04/01 07:42:27;;;;;;;4.57;1.23;;;;;;;;;;6159307;23;20013;-91
2022/04/01 07:44:54;;;;;;;2.42;0.90;;;;;;;;;;6158431;23;20009;-94
2022/04/01 07:47:21;;;;;;;4.00;1.02;;;;;;;;;;6158698;23;20013;-92
2022/04/01 07:49:47;;;;;;;5.32;1.20;;;;;;;;;;6153670;23;20097;-92
2022/04/01 07:52:13;;;;;;;6.55;1.50;;;;;;;;;;6155209;23;20017;-91
2022/04/01 07:54:40;;;;;;;11.52;2.85;;;;;;;;;;6154222;23;20435;-92
2022/04/01 07:57:07;;;;;;;4.45;1.23;;;;;;;;;;6154140;23;20013;-92
2022/04/01 07:59:36;;;;;;;8.93;1.88;;;;;;;;;;6154230;23;20032;-88
2022/04/01 08:02:03;;;;;;;4.60;1.40;;;;;;;;;;6154282;23;20018;-94
2022/04/01 08:04:29;;;;;;;4.60;1.20;;;;;;;;;;6154451;23;20013;-93
2022/04/01 08:06:55;;;;;;;5.70;1.45;;;;;;;;;;6154730;23;20443;-93
2022/04/01 08:09:22;;;;;;;4.05;1.40;;;;;;;;;;6130472;23;20025;-93
2022/04/01 08:11:48;;;;;;;5.25;1.50;;;;;;;;;;6154505;23;20014;-92
2022/04/01 08:14:14;;;;;;;4.30;1.67;;;;;;;;;;6130104;23;20017;-93
2022/04/01 08:16:40;;;;;;;6.93;1.50;;;;;;;;;;6153757;23;20009;-92
2022/04/01 08:19:06;;;;;;;5.43;1.75;;;;;;;;;;6154537;23;20056;-93
2022/04/01 08:21:32;;;;;;;4.05;1.50;;;;;;;;;;6154548;23;20091;-95
2022/04/01 08:23:58;;;;;;;5.85;1.70;;;;;;;;;;6154260;23;20020;-94
2022/04/01 08:26:25;;;;;;;8.00;2.47;;;;;;;;;;6154155;23;20014;-92
2022/04/01 08:28:51;;;;;;;6.10;2.40;;;;;;;;;;6130665;23;20085;-90
2022/04/01 08:31:17;;;;;;;6.30;2.90;;;;;;;;;;6153740;23;20315;-89
2022/04/01 08:33:44;;;;;;;9.88;3.25;;;;;;;;;;6154831;23;20054;-91
2022/04/01 08:36:10;;;;;;;8.25;3.42;;;;;;;;;;6129806;23;20022;-92
2022/04/01 08:38:37;;;;;;;12.98;4.03;;;;;;;;;;6152925;23;20009;-94
2022/04/01 08:41:03;;;;;;;7.60;3.67;;;;;;;;;;6153773;23;20049;-92
2022/04/01 08:43:29;;;;;;;9.57;3.30;;;;;;;;;;6152336;23;20321;-92
2022/04/01 08:45:56;;;;;;;6.95;3.88;;;;;;;;;;6156021;23;20114;-92
2022/04/01 08:48:22;;;;;;;6.82;3.50;;;;;;;;;;6154393;23;20014;-93
2022/04/01 08:50:50;;;;;;;7.22;3.88;;;;;;;;;;6131972;23;20092;-91
2022/04/01 08:53:16;;;;;;;8.48;4.15;;;;;;;;;;6129977;23;20510;-89
2022/04/01 08:55:45;;;;;;;8.75;4.38;;;;;;;;;;6156729;23;20045;-92
2022/04/01 08:58:11;;;;;;;10.20;4.88;;;;;;;;;;6129877;23;20017;-92
2022/04/01 09:00:37;;;;;;;9.23;4.88;;;;;;;;;;6156978;23;20017;-93
2022/04/01 09:03:05;;;;;;;9.32;4.60;;;;;;;;;;6154594;23;20025;-91
2022/04/01 09:05:31;;;;;;;9.45;4.63;;;;;;;;;;6156105;23;20095;-92
2022/04/01 09:08:04;;;;;;;7.22;3.95;;;;;;;;;;6154901;23;20021;-91
2022/04/01 09:10:31;;;;;;;9.65;3.55;;;;;;;;;;6157049;23;20014;-92
2022/04/01 09:12:57;;;;;;;8.68;4.13;;;;;;;;;;6130699;23;20013;-93
2022/04/01 09:15:23;;;;;;;7.55;3.50;;;;;;;;;;6157082;23;20068;-94
2022/04/01 09:17:51;;;;;;;11.02;3.55;;;;;;;;;;6157041;23;20018;-93
2022/04/01 09:20:17;;;;;;;7.95;3.22;;;;;;;;;;6156476;23;20014;-92
2022/04/01 09:22:44;;;;;;;7.30;3.33;;;;;;;;;;6155998;23;20024;-92
2022/04/01 09:25:12;;;;;;;7.20;3.58;;;;;;;;;;6155868;23;20013;-92
2022/04/01 09:27:38;;;;;;;9.43;3.80;;;;;;;;;;6131690;23;20493;-91
2022/04/01 09:30:05;;;;;;;8.02;3.78;;;;;;;;;;6156386;23;20017;-93
2022/04/01 09:32:41;;;;;;;8.80;3.78;;;;;;;;;;6135403;23;20041;-92
2022/04/01 09:35:10;;;;;;;8.32;3.47;;;;;;;;;;6157109;23;20024;-93
2022/04/01 09:37:47;;;;;;;7.15;3.40;;;;;;;;;;6158868;23;20021;-92
2022/04/01 09:40:14;;;;;;;11.32;3.80;;;;;;;;;;6131058;23;20053;-94
2022/04/01 09:42:46;;;;;;;10.13;3.90;;;;;;;;;;6131536;23;20020;-93
2022/04/01 09:45:15;;;;;;;8.30;4.35;;;;;;;;;;6157616;23;20028;-94
2022/04/01 09:47:41;;;;;;;8.88;4.75;;;;;;;;;;6139877;23;20028;-91
2022/04/01 09:50:11;;;;;;;9.20;4.05;;;;;;;;;;6156102;23;20025;-93
2022/04/01 09:52:37;;;;;;;9.60;4.00;;;;;;;;;;6156480;23;20509;-92
2022/04/01 09:55:04;;;;;;;8.80;4.63;;;;;;;;;;6131843;23;20009;-93
2022/04/01 09:57:30;;;;;;;9.30;4.25;;;;;;;;;;6156230;23;20036;-94
2022/04/01 09:59:56;;;;;;;8.85;3.97;;;;;;;;;;6157056;23;20014;-93
2022/04/01 10:02:22;;;;;;;9.13;4.00;;;;;;;;;;6133163;23;20013;-95
2022/04/01 10:04:49;;;;;;;6.80;3.13;;;;;;;;;;6133072;23;20010;-91
2022/04/01 10:07:16;;;;;;;6.97;3.45;;;;;;;;;;6159775;23;20506;-91
2022/04/01 10:09:43;;;;;;;7.85;3.13;;;;;;;;;;6156801;23;20371;-93
2022/04/01 10:12:13;;;;;;;9.93;2.80;;;;;;;;;;6131769;23;20597;-91
2022/04/01 10:14:40;;;;;;;5.65;3.00;;;;;;;;;;6129241;23;20022;-91
2022/04/01 10:17:09;;;;;;;7.00;2.70;;;;;;;;;;6155847;23;20010;-92
2022/04/01 10:19:37;;;;;;;6.88;3.03;;;;;;;;;;6155535;23;20184;-95
2022/04/01 10:22:03;;;;;;;7.03;3.20;;;;;;;;;;6130448;23;20017;-92
2022/04/01 10:24:38;;;;;;;5.30;2.78;;;;;;;;;;6155429;23;20019;-93
2022/04/01 10:27:04;;;;;;;6.43;2.90;;;;;;;;;;6130623;23;20072;-93
2022/04/01 10:29:32;;;;;;;6.72;3.17;;;;;;;;;;6155914;23;20013;-91
2022/04/01 10:32:17;;;;;;;7.20;2.40;;;;;;;;;;6155142;23;20472;-93
2022/04/01 10:34:46;;;;;;;6.40;2.45;;;;;;;;;;6153303;23;20014;-93
2022/04/01 10:37:13;;;;;;;6.80;2.33;;;;;;;;;;6155223;23;20092;-94
2022/04/01 10:39:49;;;;;;;5.18;2.00;;;;;;;;;;6155548;23;20013;-93
2022/04/01 10:42:16;;;;;;;5.13;2.22;;;;;;;;;;6155029;23;20465;-91
2022/04/01 10:44:50;;;;;;;8.05;2.33;;;;;;;;;;6155533;23;20017;-92
2022/04/01 10:47:16;;;;;;;4.75;1.77;;;;;;;;;;6155381;23;20017;-93
2022/04/01 10:52:30;;;;;;;5.82;1.85;;;;;;;;;;6154639;23;20347;-92
2022/04/01 10:55:10;;;;;;;6.18;2.42;;;;;;;;;;6130599;23;20021;-92
2022/04/01 10:57:39;;;;;;;6.07;2.00;;;;;;;;;;6130647;23;20021;-92
2022/04/01 11:00:14;;;;;;;6.22;2.53;;;;;;;;;;6155616;23;20013;-93
2022/04/01 11:02:40;;;;;;;7.65;1.52;;;;;;;;;;6131729;23;20022;-94
2022/04/01 11:05:29;;;;;;;4.15;1.75;;;;;;;;;;6156044;23;20013;-94
2022/04/01 11:08:15;;;;;;;3.22;1.40;;;;;;;;;;6154717;23;20017;-93
2022/04/01 11:11:01;;;;;;;5.22;1.75;;;;;;;;;;6130591;23;20009;-94
2022/04/01 11:13:28;;;;;;;5.47;1.55;;;;;;;;;;6154829;23;20077;-94
2022/04/01 11:16:12;;;;;;;5.63;1.33;;;;;;;;;;6155401;23;20344;-93
2022/04/01 11:18:58;;;;;;;5.30;1.58;;;;;;;;;;6130166;23;20009;-92
2022/04/01 11:21:30;;;;;;;6.40;1.52;;;;;;;;;;6154841;23;20021;-94
2022/04/01 11:24:16;;;;;;;4.50;1.83;;;;;;;;;;6154918;23;20473;-92
2022/04/01 11:26:42;;;;;;;4.18;1.60;;;;;;;;;;6130812;23;20017;-92
2022/04/01 11:29:24;;;;;;;6.90;1.95;;;;;;;;;;6154628;23;20415;-93
2022/04/01 11:31:50;;;;;;;6.00;2.22;;;;;;;;;;6155176;23;20017;-93
2022/04/01 11:34:16;;;;;;;9.77;1.75;;;;;;;;;;6155090;23;20100;-94
2022/04/01 11:36:42;;;;;;;8.27;2.20;;;;;;;;;;6130832;23;20021;-94
2022/04/01 11:39:10;;;;;;;8.60;1.95;;;;;;;;;;6130389;23;20044;-92
2022/04/01 11:42:05;;;;;;;3.55;1.70;;;;;;;;;;6131406;23;20072;-92
2022/04/01 11:44:32;;;;;;;8.55;1.90;;;;;;;;;;6149273;23;20024;-94
2022/04/01 11:46:58;;;;;;;6.97;2.10;;;;;;;;;;6154908;23;20068;-93
2022/04/01 11:49:28;;;;;;;6.00;1.90;;;;;;;;;;6130025;23;20017;-93
2022/04/01 11:51:54;;;;;;;4.82;1.65;;;;;;;;;;6154797;23;20463;-92
2022/04/01 11:54:21;;;;;;;5.40;1.73;;;;;;;;;;6130595;23;20014;-93
2022/04/01 11:56:50;;;;;;;6.22;2.05;;;;;;;;;;6155287;23;20009;-92
2022/04/01 11:59:16;;;;;;;6.57;1.85;;;;;;;;;;6154441;23;20010;-93
2022/04/01 12:01:54;;;;;;;6.28;1.77;;;;;;;;;;6154657;23;20053;-93
2022/04/01 12:04:26;;;;;;;7.45;2.15;;;;;;;;;;6154444;23;20017;-92
2022/04/01 12:09:37;;;;;;;7.45;1.80;;;;;;;;;;6154356;23;20028;-91
2022/04/01 12:12:04;;;;;;;4.75;1.55;;;;;;;;;;6154443;23;20024;-92
2022/04/01 12:14:30;;;;;;;7.60;1.90;;;;;;;;;;6129998;23;20009;-94
2022/04/01 12:16:57;;;;;;;4.65;1.73;;;;;;;;;;6129852;23;20087;-91
2022/04/01 12:19:23;;;;;;;7.28;1.45;;;;;;;;;;6130397;23;20320;-92
2022/04/01 12:21:50;;;;;;;4.38;1.77;;;;;;;;;;6156324;23;20017;-91
2022/04/01 12:24:17;;;;;;;4.72;2.00;;;;;;;;;;6130696;23;20017;-93
2022/04/01 12:26:44;;;;;;;4.50;1.65;;;;;;;;;;6133808;23;20017;-91
2022/04/01 12:29:20;;;;;;;4.78;1.58;;;;;;;;;;6134565;23;20020;-92
2022/04/01 12:31:57;;;;;;;5.85;1.77;;;;;;;;;;6134989;23;20017;-92
2022/04/01 12:34:24;;;;;;;6.63;1.45;;;;;;;;;;6158107;23;20013;-91
2022/04/01 12:37:00;;;;;;;4.28;1.27;;;;;;;;;;6157829;23;20014;-92
2022/04/01 12:39:27;;;;;;;5.18;1.40;;;;;;;;;;6158294;23;20016;-91
2022/04/01 12:41:55;;;;;;;8.18;1.42;;;;;;;;;;6158022;23;20013;-91
2022/04/01 12:44:25;;;;;;;4.50;1.70;;;;;;;;;;6155970;23;20090;-92
2022/04/01 12:46:53;;;;;;;3.75;1.25;;;;;;;;;;6131414;23;20014;-91
2022/04/01 12:49:20;;;;;;;5.78;1.83;;;;;;;;;;6130817;23;20021;-92
2022/04/01 12:51:54;;;;;;;5.82;1.33;;;;;;;;;;6155938;23;20325;-91
2022/04/01 12:54:27;;;;;;;8.52;1.73;;;;;;;;;;6155851;23;20013;-92
2022/04/01 12:56:54;;;;;;;5.30;1.67;;;;;;;;;;6156072;23;20071;-93
2022/04/01 12:59:24;;;;;;;3.47;1.50;;;;;;;;;;6131030;23;20020;-92
2022/04/01 13:02:23;;;;;;;7.03;1.95;;;;;;;;;;6155763;23;20052;-90
2022/04/01 13:04:50;;;;;;;4.75;1.67;;;;;;;;;;6114468;23;20024;-91
2022/04/01 13:07:25;;;;;;;4.68;1.70;;;;;;;;;;6156053;23;20072;-92
2022/04/01 13:09:56;;;;;;;7.25;1.80;;;;;;;;;;6131005;23;20289;-92
2022/04/01 13:12:37;;;;;;;6.80;1.90;;;;;;;;;;6131084;23;20019;-91
2022/04/01 13:15:04;;;;;;;5.57;1.52;;;;;;;;;;6155739;23;20009;-92
2022/04/01 13:17:40;;;;;;;6.45;1.83;;;;;;;;;;6155695;23;20087;-92
2022/04/01 13:20:08;;;;;;;4.90;1.80;;;;;;;;;;6155860;23;20020;-90
2022/04/01 13:22:34;;;;;;;4.68;1.30;;;;;;;;;;6155426;23;20080;-91
2022/04/01 13:25:00;;;;;;;7.25;1.65;;;;;;;;;;6155357;23;20021;-91
2022/04/01 13:27:27;;;;;;;6.47;1.23;;;;;;;;;;6130860;23;20020;-93
2022/04/01 13:29:54;;;;;;;5.47;1.50;;;;;;;;;;6132085;23;20016;-93
2022/04/01 13:32:20;;;;;;;5.60;1.40;;;;;;;;;;6131337;23;20013;-90
2022/04/01 13:34:46;;;;;;;4.20;1.48;;;;;;;;;;6155717;23;20010;-92
2022/04/01 13:37:12;;;;;;;4.93;1.15;;;;;;;;;;6155539;23;20102;-94
2022/04/01 13:39:38;;;;;;;6.78;1.30;;;;;;;;;;6155396;23;20017;-91
2022/04/01 13:42:05;;;;;;;5.22;1.60;;;;;;;;;;6155697;23;20042;-92
2022/04/01 13:44:32;;;;;;;4.85;1.70;;;;;;;;;;6130855;23;20415;-91
2022/04/01 13:46:58;;;;;;;5.50;1.60;;;;;;;;;;6156063;23;20346;-92
2022/04/01 13:49:25;;;;;;;6.07;1.60;;;;;;;;;;6155500;23;20040;-92
2022/04/01 13:51:52;;;;;;;5.63;1.33;;;;;;;;;;6131177;23;20455;-92
2022/04/01 13:54:18;;;;;;;5.50;1.52;;;;;;;;;;6155840;23;20088;-92
2022/04/01 13:56:47;;;;;;;5.75;1.63;;;;;;;;;;6131325;23;20014;-93
2022/04/01 13:59:14;;;;;;;7.93;1.48;;;;;;;;;;6130754;23;20511;-93
2022/04/01 14:01:40;;;;;;;7.32;1.83;;;;;;;;;;6155706;23;20017;-91
2022/04/01 14:04:07;;;;;;;7.13;1.23;;;;;;;;;;6155574;23;20023;-92
2022/04/01 14:06:34;;;;;;;4.93;1.42;;;;;;;;;;6154010;23;20343;-91
2022/04/01 14:09:00;;;;;;;8.43;1.95;;;;;;;;;;6155206;23;20013;-91
2022/04/01 14:11:26;;;;;;;4.57;1.70;;;;;;;;;;6154509;23;20029;-92
2022/04/01 14:13:53;;;;;;;4.32;1.40;;;;;;;;;;6155273;23;20017;-91
2022/04/01 14:16:19;;;;;;;4.68;1.52;;;;;;;;;;6155162;23;20041;-91
2022/04/01 14:18:46;;;;;;;6.30;1.48;;;;;;;;;;6130686;23;20064;-91
2022/04/01 14:21:13;;;;;;;6.43;1.90;;;;;;;;;;6130963;23;20072;-93
2022/04/01 14:23:39;;;;;;;6.28;2.10;;;;;;;;;;6131159;23;20272;-92
2022/04/01 14:26:06;;;;;;;6.28;1.33;;;;;;;;;;6130714;23;20017;-93
2022/04/01 14:28:35;;;;;;;6.60;1.52;;;;;;;;;;6130575;23;20020;-94
2022/04/01 14:31:01;;;;;;;5.30;1.80;;;;;;;;;;6154451;23;20355;-91
2022/04/01 14:33:28;;;;;;;6.45;1.80;;;;;;;;;;6154796;23;20430;-92
2022/04/01 14:35:54;;;;;;;5.03;1.33;;;;;;;;;;6130004;23;20041;-91
2022/04/01 14:38:23;;;;;;;6.82;1.40;;;;;;;;;;6155050;23;20033;-91
2022/04/01 14:40:53;;;;;;;4.78;1.40;;;;;;;;;;6154898;23;20018;-91
2022/04/01 14:43:19;;;;;;;5.35;1.50;;;;;;;;;;6154572;23;20013;-93
2022/04/01 14:45:46;;;;;;;4.57;1.45;;;;;;;;;;6130048;23;20013;-92
2022/04/01 14:48:12;;;;;;;5.03;1.27;;;;;;;;;;6154816;23;20013;-93
2022/04/01 14:50:38;;;;;;;5.60;1.25;;;;;;;;;;6129685;23;20399;-91
2022/04/01 14:53:05;;;;;;;5.00;1.52;;;;;;;;;;6130061;23;20010;-91
2022/04/01 14:55:31;;;;;;;4.85;1.80;;;;;;;;;;6129288;23;20096;-91
2022/04/01 14:57:57;;;;;;;6.82;1.85;;;;;;;;;;6155807;23;20380;-92
2022/04/01 15:00:23;;;;;;;8.98;1.42;;;;;;;;;;6154387;23;20017;-89
2022/04/01 15:02:49;;;;;;;5.28;1.42;;;;;;;;;;6155270;23;20024;-91